Time;durP1;ratioP1;P1;durP2;ratioP2;P2;SDS_P1;SDS_P2;PMS_P1;PMS_P2;Temp;Humidity;BMP_temperature;BMP_pressure;BME280_temperature;BME280_humidity;BME280_pressure;Samples;Min_cycle;Max_cycle;Signal;HPM_P1;HPM_P2
2023/01/20 00:02:20;;;;;;;1.83;1.05;;;7.50;89.10;;;;;;10776361;32;20032;-77
2023/01/20 00:08:22;;;;;;;2.05;1.20;;;7.60;89.20;;;;;;10767632;33;20028;-77
2023/01/20 00:14:24;;;;;;;2.28;1.20;;;7.60;89.10;;;;;;10779771;32;20070;-77
2023/01/20 00:20:35;;;;;;;1.30;0.90;;;7.50;89.40;;;;;;10640946;33;11867879;31
2023/01/20 00:26:37;;;;;;;1.00;0.73;;;7.40;89.50;;;;;;10891274;32;20098;-77
2023/01/20 00:32:43;;;;;;;6.60;1.75;;;7.50;89.50;;;;;;10908776;32;20034;-76
2023/01/20 00:38:46;;;;;;;1.30;0.93;;;7.50;89.30;;;;;;10895837;32;20038;-77
2023/01/20 00:44:48;;;;;;;1.55;0.90;;;7.40;89.20;;;;;;10896034;32;20007;-77
2023/01/20 00:50:53;;;;;;;4.40;2.53;;;7.30;89.30;;;;;;10906813;32;20428;-77
2023/01/20 00:56:55;;;;;;;3.95;1.35;;;7.20;89.20;;;;;;10908784;32;20401;-77
2023/01/20 01:02:57;;;;;;;2.30;1.50;;;7.10;88.20;;;;;;10908505;32;20326;-77
2023/01/20 01:08:59;;;;;;;1.17;0.73;;;6.90;88.80;;;;;;10894635;32;20022;-78
2023/01/20 01:15:21;;;;;;;3.12;1.48;;;6.90;89.10;;;;;;10907969;32;20023;-78
2023/01/20 01:21:23;;;;;;;2.92;1.70;;;6.90;88.40;;;;;;10884170;32;20047;-77
2023/01/20 01:27:27;;;;;;;3.55;1.83;;;6.70;88.00;;;;;;10754182;33;20016;-77
2023/01/20 01:33:29;;;;;;;3.50;1.80;;;6.60;87.50;;;;;;10754113;33;20020;-77
2023/01/20 01:39:31;;;;;;;5.12;2.45;;;6.60;87.30;;;;;;10753876;33;20051;-77
2023/01/20 01:45:33;;;;;;;4.00;1.77;;;6.40;86.10;;;;;;10753727;33;20043;-77
2023/01/20 01:51:43;;;;;;;3.33;1.77;;;6.20;86.70;;;;;;10753611;33;20326;-77
2023/01/20 01:57:46;;;;;;;2.97;1.75;;;6.20;86.90;;;;;;10753216;33;20028;-77
2023/01/20 02:03:59;;;;;;;3.22;1.70;;;6.20;86.90;;;;;;10740148;33;20044;-77
2023/01/20 02:10:02;;;;;;;3.85;2.05;;;6.00;86.30;;;;;;10752930;33;20047;-76
2023/01/20 02:16:31;;;;;;;2.58;1.75;;;6.20;87.60;;;;;;10752886;33;20076;-75
2023/01/20 02:22:54;;;;;;;3.25;1.70;;;6.40;87.90;;;;;;10752561;33;20024;-75
2023/01/20 02:29:19;;;;;;;1.87;1.40;;;6.50;88.20;;;;;;10751962;33;20024;-75
2023/01/20 02:35:49;;;;;;;3.75;2.05;;;6.70;88.30;;;;;;10827753;32;20024;-75
2023/01/20 02:42:02;;;;;;;2.30;1.53;;;6.60;88.80;;;;;;10822831;32;20024;-75
2023/01/20 02:48:25;;;;;;;2.15;1.20;;;6.70;89.10;;;;;;10826951;32;20174;-75
2023/01/20 02:54:31;;;;;;;3.42;1.98;;;6.90;89.10;;;;;;10826208;32;20052;-75
2023/01/20 03:00:41;;;;;;;2.28;1.48;;;6.80;89.30;;;;;;10827124;32;20051;-75
2023/01/20 03:06:48;;;;;;;3.90;2.25;;;6.80;89.40;;;;;;10827046;32;20411;-75
2023/01/20 03:13:13;;;;;;;3.80;2.40;;;6.80;89.00;;;;;;10761696;32;20046;-75
2023/01/20 03:19:17;;;;;;;4.03;2.22;;;6.70;89.10;;;;;;10751826;33;20051;-75
2023/01/20 03:25:21;;;;;;;3.22;2.00;;;6.70;89.40;;;;;;10751056;33;20029;-75
2023/01/20 03:31:29;;;;;;;3.00;1.87;;;6.70;89.80;;;;;;10750921;33;20043;-75
2023/01/20 03:37:31;;;;;;;3.37;2.00;;;6.70;89.60;;;;;;10754225;33;20047;-75
2023/01/20 03:43:48;;;;;;;2.47;1.80;;;6.70;89.60;;;;;;10753398;33;20021;-75
2023/01/20 03:50:00;;;;;;;4.50;2.35;;;6.60;88.60;;;;;;10757150;33;20035;-74
2023/01/20 03:56:06;;;;;;;4.18;2.60;;;6.40;89.00;;;;;;10756831;33;20047;-75
2023/01/20 04:02:10;;;;;;;3.70;1.98;;;6.40;89.10;;;;;;10756638;33;20052;-75
2023/01/20 04:08:16;;;;;;;3.53;1.90;;;6.50;89.30;;;;;;10756513;33;20021;-75
2023/01/20 04:14:18;;;;;;;3.12;1.98;;;6.30;88.80;;;;;;10753170;33;20016;-75
2023/01/20 04:20:23;;;;;;;3.20;1.90;;;6.40;89.20;;;;;;10753317;33;20028;-75
2023/01/20 04:26:25;;;;;;;3.65;1.87;;;6.40;89.20;;;;;;10740414;33;20056;-75
2023/01/20 04:32:27;;;;;;;3.67;1.60;;;6.50;89.30;;;;;;10755780;33;20032;-75
2023/01/20 04:38:29;;;;;;;3.37;1.95;;;6.50;89.40;;;;;;10755549;33;20020;-75
2023/01/20 04:44:30;;;;;;;4.10;2.58;;;6.80;89.20;;;;;;10738210;33;20028;-75
2023/01/20 04:50:36;;;;;;;1.85;1.50;;;7.00;89.40;;;;;;10754889;33;20046;-75
2023/01/20 04:56:38;;;;;;;2.60;1.95;;;7.20;89.40;;;;;;10755152;33;20017;-75
2023/01/20 05:02:40;;;;;;;3.50;1.80;;;7.40;89.10;;;;;;10754882;33;20429;-76
2023/01/20 05:08:42;;;;;;;4.12;2.47;;;7.30;88.60;;;;;;10754826;33;20051;-76
2023/01/20 05:14:44;;;;;;;2.78;1.95;;;7.00;87.60;;;;;;10741600;32;20028;-76
2023/01/20 05:20:47;;;;;;;4.20;2.20;;;7.00;89.00;;;;;;10741450;33;20021;-76
2023/01/20 05:26:49;;;;;;;2.95;1.95;;;7.20;89.00;;;;;;10754345;33;20059;-76
2023/01/20 05:32:51;;;;;;;3.10;2.25;;;7.20;89.00;;;;;;10740471;33;20032;-76
2023/01/20 05:38:53;;;;;;;3.17;1.92;;;7.20;88.50;;;;;;10753886;33;20013;-76
2023/01/20 05:44:55;;;;;;;3.78;1.58;;;7.30;89.00;;;;;;10753822;33;20048;-76
2023/01/20 05:50:57;;;;;;;3.05;1.77;;;7.60;88.80;;;;;;10753569;33;20318;-76
2023/01/20 05:57:00;;;;;;;3.00;1.40;;;7.70;88.50;;;;;;10753409;33;20300;-76
2023/01/20 06:03:02;;;;;;;3.50;1.87;;;7.80;88.30;;;;;;10751572;33;20296;-77
2023/01/20 06:09:05;;;;;;;3.00;1.90;;;7.80;88.40;;;;;;10737668;33;20433;-75
2023/01/20 06:15:08;;;;;;;2.33;1.75;;;7.90;88.40;;;;;;10752912;33;20020;-75
2023/01/20 06:21:10;;;;;;;2.22;1.27;;;7.90;88.20;;;;;;10752917;32;20445;-75
2023/01/20 06:27:12;;;;;;;3.17;1.87;;;7.90;88.20;;;;;;10752465;33;20043;-75
2023/01/20 06:33:14;;;;;;;3.70;2.05;;;8.00;88.30;;;;;;10751693;33;20021;-75
2023/01/20 06:39:16;;;;;;;3.45;2.08;;;8.10;88.10;;;;;;10738928;33;20032;-75
2023/01/20 06:45:18;;;;;;;4.05;2.58;;;8.10;88.30;;;;;;10752063;33;20039;-75
2023/01/20 06:51:20;;;;;;;7.25;2.80;;;8.20;88.40;;;;;;10751905;33;20039;-75
2023/01/20 06:57:22;;;;;;;5.50;3.33;;;8.30;88.20;;;;;;10750186;33;20033;-75
2023/01/20 07:03:24;;;;;;;4.70;3.03;;;8.30;87.50;;;;;;10738499;32;20028;-75
2023/01/20 07:09:26;;;;;;;4.53;3.00;;;7.90;86.90;;;;;;10737507;33;20095;-75
2023/01/20 07:15:28;;;;;;;8.32;4.53;;;8.00;87.60;;;;;;10743330;33;20040;-76
2023/01/20 07:21:30;;;;;;;8.60;5.65;;;7.50;87.30;;;;;;10711765;33;20067;-75
2023/01/20 07:27:33;;;;;;;8.45;5.28;;;7.70;87.60;;;;;;10713514;33;20024;-75
2023/01/20 07:33:35;;;;;;;6.80;4.32;;;8.00;86.70;;;;;;10714567;33;20053;-75
2023/01/20 07:39:37;;;;;;;8.60;5.30;;;8.20;86.00;;;;;;10714393;33;20048;-75
2023/01/20 07:45:39;;;;;;;8.57;5.62;;;8.30;86.00;;;;;;10714442;33;20044;-75
2023/01/20 07:51:42;;;;;;;7.53;5.25;;;8.40;85.80;;;;;;10714217;33;20013;-75
2023/01/20 07:57:44;;;;;;;8.73;6.10;;;8.50;85.50;;;;;;10731979;33;20032;-75
2023/01/20 08:03:46;;;;;;;8.50;6.10;;;8.60;85.30;;;;;;10713786;33;20025;-75
2023/01/20 08:09:49;;;;;;;8.02;4.65;;;8.70;85.20;;;;;;10782824;32;20024;-75
2023/01/20 08:15:51;;;;;;;9.75;6.25;;;8.80;85.20;;;;;;10733804;33;20043;-75
2023/01/20 08:21:52;;;;;;;13.02;6.65;;;9.00;85.10;;;;;;10755167;27;20437;-75
2023/01/20 08:27:54;;;;;;;10.35;5.80;;;9.10;86.00;;;;;;10820399;33;20055;-75
2023/01/20 08:33:57;;;;;;;9.80;5.45;;;9.20;86.10;;;;;;10829198;33;20058;-75
2023/01/20 08:39:59;;;;;;;6.00;3.87;;;9.20;86.40;;;;;;10828774;33;20020;-75
2023/01/20 08:46:05;;;;;;;6.25;4.12;;;9.20;87.00;;;;;;10828425;33;20027;-75
2023/01/20 08:52:07;;;;;;;7.32;4.03;;;9.20;87.00;;;;;;10828659;33;20047;-75
2023/01/20 08:58:09;;;;;;;9.40;3.78;;;9.10;87.40;;;;;;10828362;33;20012;-75
2023/01/20 09:04:11;;;;;;;7.68;3.53;;;8.90;87.50;;;;;;10828288;33;20047;-75
2023/01/20 09:10:14;;;;;;;5.37;3.03;;;8.70;87.60;;;;;;10828250;33;20016;-76
2023/01/20 09:16:17;;;;;;;5.03;2.85;;;8.60;87.70;;;;;;10828008;33;20086;-75
2023/01/20 09:22:21;;;;;;;6.95;2.92;;;8.40;87.90;;;;;;10878888;32;20486;-75
2023/01/20 09:28:23;;;;;;;5.95;3.33;;;8.30;88.00;;;;;;10827616;33;20417;-75
2023/01/20 09:34:28;;;;;;;6.25;2.78;;;8.10;88.10;;;;;;10827232;32;20031;-75
2023/01/20 09:47:32;;;;;;;4.22;2.22;;;8.60;88.60;;;;;;10826888;33;20180;-75
2023/01/20 09:53:44;;;;;;;5.32;3.17;;;8.70;88.70;;;;;;10826922;33;20024;-75
2023/01/20 09:59:59;;;;;;;5.37;2.83;;;8.60;87.70;;;;;;10877382;32;20089;-75
2023/01/20 10:06:08;;;;;;;5.47;2.75;;;8.30;87.80;;;;;;10827082;33;20047;-75
2023/01/20 10:12:24;;;;;;;6.23;3.47;;;8.20;88.50;;;;;;10826342;33;20020;-75
2023/01/20 10:18:46;;;;;;;5.80;3.75;;;8.30;88.90;;;;;;10825908;33;20043;-75
2023/01/20 10:25:16;;;;;;;7.28;3.90;;;8.10;87.70;;;;;;10876591;32;20028;-75
2023/01/20 10:31:25;;;;;;;6.78;4.18;;;8.20;88.50;;;;;;10825641;33;20011;-75
2023/01/20 10:37:30;;;;;;;5.60;2.65;;;8.10;87.40;;;;;;10876059;32;20028;-74
2023/01/20 10:43:32;;;;;;;5.78;3.85;;;7.90;86.80;;;;;;10863211;32;20050;-75
2023/01/20 10:49:47;;;;;;;6.35;3.67;;;8.10;87.60;;;;;;10824694;32;20016;-74
2023/01/20 10:56:30;;;;;;;3.75;2.33;;;8.00;86.40;;;;;;10821063;33;20004;-74
2023/01/20 11:02:36;;;;;;;3.75;2.10;;;8.30;87.30;;;;;;10824818;33;20385;-74
2023/01/20 11:08:38;;;;;;;4.95;2.87;;;8.60;87.00;;;;;;10824354;33;20517;-74
2023/01/20 11:14:41;;;;;;;5.45;3.33;;;8.70;87.50;;;;;;10823052;33;20042;-74
2023/01/20 11:20:56;;;;;;;4.47;3.03;;;8.90;87.90;;;;;;10827430;32;20429;-74
2023/01/20 11:27:11;;;;;;;4.80;3.05;;;8.90;87.50;;;;;;10979395;32;20018;-74
2023/01/20 11:33:25;;;;;;;7.32;4.00;;;9.10;88.50;;;;;;10979103;32;20427;-74
2023/01/20 11:39:57;;;;;;;5.37;3.35;;;9.30;88.50;;;;;;10976970;32;20056;-74
2023/01/20 11:46:25;;;;;;;6.12;3.95;;;9.50;88.40;;;;;;10979049;32;20038;-74
2023/01/20 11:52:27;;;;;;;4.93;3.50;;;10.00;88.50;;;;;;10979198;32;20400;-74
2023/01/20 11:58:47;;;;;;;3.55;2.65;;;10.40;88.00;;;;;;10966857;32;20041;-74
2023/01/20 12:05:24;;;;;;;5.30;3.30;;;10.60;87.90;;;;;;10928637;32;20432;-74
2023/01/20 12:11:32;;;;;;;5.93;3.25;;;10.50;87.70;;;;;;10943682;32;20054;-74
2023/01/20 12:17:45;;;;;;;3.97;2.62;;;10.50;87.70;;;;;;10929684;32;20483;-74
2023/01/20 12:24:01;;;;;;;5.60;2.58;;;10.50;88.10;;;;;;10939269;32;20035;-74
2023/01/20 12:30:14;;;;;;;5.32;2.85;;;10.60;87.80;;;;;;10944022;32;20196;-73
2023/01/20 12:36:24;;;;;;;5.85;3.65;;;10.50;87.90;;;;;;10947894;32;20077;-73
2023/01/20 12:42:47;;;;;;;3.35;2.47;;;10.60;88.30;;;;;;10947242;32;20463;-73
2023/01/20 12:49:06;;;;;;;4.47;2.87;;;10.90;87.70;;;;;;10946920;32;20015;-73
2023/01/20 12:55:29;;;;;;;5.57;3.85;;;11.00;87.90;;;;;;10946649;32;20019;-73
2023/01/20 13:01:42;;;;;;;5.00;3.58;;;10.90;87.80;;;;;;10946483;32;20045;-74
2023/01/20 13:08:23;;;;;;;6.15;4.07;;;10.70;87.20;;;;;;10945947;32;20420;-73
2023/01/20 13:14:45;;;;;;;5.03;3.58;;;10.40;88.80;;;;;;10940073;32;20385;-74
2023/01/20 13:20:47;;;;;;;9.27;4.45;;;10.60;89.40;;;;;;10945626;32;20054;-73
2023/01/20 13:26:50;;;;;;;5.93;3.72;;;10.70;88.70;;;;;;10804825;32;20012;-74
2023/01/20 13:33:03;;;;;;;7.10;3.42;;;10.50;88.70;;;;;;10841336;32;20047;-74
2023/01/20 13:39:43;;;;;;;8.40;5.22;;;10.40;89.40;;;;;;10790436;33;20386;-74
2023/01/20 13:45:45;;;;;;;4.40;3.55;;;10.20;88.90;;;;;;10790033;33;20028;-73
2023/01/20 13:51:47;;;;;;;6.57;4.53;;;10.20;89.30;;;;;;10790845;33;20421;-73
2023/01/20 13:57:49;;;;;;;5.70;3.50;;;10.20;88.90;;;;;;10790066;33;20020;-73
2023/01/20 14:04:25;;;;;;;7.40;4.35;;;10.40;89.60;;;;;;10871397;32;20039;-73
2023/01/20 14:10:28;;;;;;;8.65;4.43;;;10.70;89.90;;;;;;10826394;33;20036;-73
2023/01/20 14:16:42;;;;;;;5.93;3.58;;;10.90;89.70;;;;;;10824181;33;20046;-73
2023/01/20 14:22:44;;;;;;;6.40;3.47;;;11.10;89.20;;;;;;10874735;32;20066;-73
2023/01/20 14:28:55;;;;;;;8.68;4.85;;;11.20;89.30;;;;;;10816070;33;20453;-73
2023/01/20 14:34:57;;;;;;;7.72;4.72;;;11.40;89.40;;;;;;10788592;33;20062;-73
2023/01/20 14:40:59;;;;;;;6.65;4.85;;;11.70;88.70;;;;;;10806961;33;20054;-74
2023/01/20 14:47:02;;;;;;;6.20;3.85;;;11.50;88.80;;;;;;10824779;33;20050;-74
2023/01/20 14:53:05;;;;;;;5.40;3.30;;;11.30;89.00;;;;;;10875841;32;20032;-74
2023/01/20 14:59:19;;;;;;;5.93;3.65;;;11.20;89.10;;;;;;10821643;33;20063;-74
2023/01/20 15:05:30;;;;;;;4.95;3.08;;;11.20;89.30;;;;;;10832645;32;20020;-74
2023/01/20 15:11:32;;;;;;;6.30;4.00;;;11.20;89.50;;;;;;10824716;33;20012;-74
2023/01/20 15:17:34;;;;;;;5.43;3.95;;;11.10;89.50;;;;;;10824834;33;20035;-73
2023/01/20 15:23:42;;;;;;;5.40;3.97;;;11.00;89.50;;;;;;10874121;32;20035;-74
2023/01/20 15:30:11;;;;;;;5.97;3.65;;;10.90;89.40;;;;;;10824046;33;20345;-74
2023/01/20 15:36:35;;;;;;;5.37;3.22;;;10.80;89.40;;;;;;10878154;32;20008;-74
2023/01/20 15:42:37;;;;;;;5.15;3.37;;;10.80;89.10;;;;;;10830763;33;20338;-73
2023/01/20 15:48:39;;;;;;;7.72;4.25;;;10.50;89.00;;;;;;10830310;33;20047;-74
2023/01/20 15:54:41;;;;;;;7.65;4.50;;;10.30;89.10;;;;;;10830178;33;20042;-74
2023/01/20 16:00:56;;;;;;;8.27;5.50;;;10.20;89.00;;;;;;10827458;33;20028;-74
2023/01/20 16:07:03;;;;;;;9.75;7.35;;;10.00;88.90;;;;;;10829808;33;20325;-74
2023/01/20 16:13:06;;;;;;;15.75;5.70;;;9.80;89.00;;;;;;10829612;33;20039;-74
2023/01/20 16:19:14;;;;;;;13.77;6.40;;;9.80;88.70;;;;;;10825612;33;20046;-74
2023/01/20 16:25:38;;;;;;;7.40;4.95;;;9.70;88.60;;;;;;10803696;27;20075;-74
2023/01/20 16:31:40;;;;;;;6.70;4.40;;;9.50;88.50;;;;;;10792294;33;20020;-74
2023/01/20 16:37:43;;;;;;;8.20;5.35;;;9.50;88.40;;;;;;10792063;33;20020;-72
2023/01/20 16:43:47;;;;;;;7.57;5.07;;;9.50;88.20;;;;;;10791341;33;20414;-72
2023/01/20 16:49:49;;;;;;;9.15;6.18;;;9.50;88.00;;;;;;10791868;33;20342;-72
2023/01/20 16:55:51;;;;;;;9.50;6.60;;;9.50;87.70;;;;;;10791785;33;20027;-72
2023/01/20 17:01:53;;;;;;;9.73;6.05;;;9.50;87.70;;;;;;10791394;33;20338;-72
2023/01/20 17:07:56;;;;;;;9.32;7.05;;;9.50;87.50;;;;;;10791324;32;20016;-72
2023/01/20 17:14:01;;;;;;;8.50;6.22;;;9.30;87.30;;;;;;10791247;33;20024;-72
2023/01/20 17:20:20;;;;;;;7.97;5.22;;;9.20;87.30;;;;;;10790986;33;20358;-72
2023/01/20 17:26:25;;;;;;;8.43;5.55;;;9.20;87.10;;;;;;10778105;33;20059;-72
2023/01/20 17:32:27;;;;;;;9.02;6.72;;;9.20;86.90;;;;;;10787008;33;20082;-72
2023/01/20 17:38:54;;;;;;;13.18;7.18;;;9.10;86.60;;;;;;10789828;33;20019;-72
2023/01/20 17:45:00;;;;;;;13.62;9.27;;;9.00;86.70;;;;;;10790389;33;20350;-72
2023/01/20 17:51:09;;;;;;;11.23;8.27;;;9.00;86.60;;;;;;10790094;33;20024;-72
2023/01/20 17:57:26;;;;;;;10.48;7.93;;;9.00;86.30;;;;;;10788185;33;20063;-72
2023/01/20 18:03:28;;;;;;;21.62;12.27;;;8.90;86.00;;;;;;10785972;33;20102;-72
2023/01/20 18:09:31;;;;;;;17.35;12.52;;;9.00;85.70;;;;;;10789791;33;20020;-72
2023/01/20 18:15:35;;;;;;;17.87;11.95;;;9.10;85.20;;;;;;10787130;33;20048;-72
2023/01/20 18:21:38;;;;;;;14.48;8.93;;;9.10;84.80;;;;;;10787009;33;20064;-72
2023/01/20 18:27:42;;;;;;;18.42;12.32;;;9.20;84.40;;;;;;10775930;33;20032;-72
2023/01/20 18:33:51;;;;;;;16.83;10.50;;;9.20;84.10;;;;;;10788953;33;20024;-72
2023/01/20 18:39:54;;;;;;;14.73;11.07;;;9.20;83.80;;;;;;10788631;33;20050;-72
2023/01/20 18:45:56;;;;;;;12.48;8.13;;;9.00;83.60;;;;;;10788695;33;20008;-72
2023/01/20 18:51:58;;;;;;;12.35;8.85;;;9.00;83.30;;;;;;10788447;33;20020;-72
2023/01/20 18:58:00;;;;;;;13.52;6.80;;;9.00;83.00;;;;;;10788186;33;20017;-72
2023/01/20 19:04:03;;;;;;;8.43;6.28;;;8.90;82.80;;;;;;10787996;33;20016;-72
2023/01/20 19:10:05;;;;;;;10.52;6.32;;;8.80;82.90;;;;;;10787557;33;20016;-72
2023/01/20 19:16:09;;;;;;;11.27;7.80;;;8.70;82.80;;;;;;10783935;33;20086;-73
2023/01/20 19:22:11;;;;;;;10.82;7.15;;;8.60;82.80;;;;;;10787536;33;20021;-73
2023/01/20 19:28:13;;;;;;;9.27;6.45;;;8.60;83.20;;;;;;10787397;33;20021;-73
2023/01/20 19:34:15;;;;;;;10.90;8.02;;;8.80;83.50;;;;;;10787280;33;20031;-73
2023/01/20 19:40:17;;;;;;;11.23;7.43;;;8.90;84.40;;;;;;10760621;33;20382;-73
2023/01/20 19:46:27;;;;;;;16.80;11.35;;;9.00;84.10;;;;;;10750359;33;20025;-73
2023/01/20 19:52:30;;;;;;;14.55;11.12;;;8.80;83.80;;;;;;10750309;33;20351;-73
2023/01/20 19:58:32;;;;;;;10.15;6.85;;;8.80;83.80;;;;;;10750287;33;20035;-72
2023/01/20 20:04:35;;;;;;;13.70;10.80;;;8.70;83.50;;;;;;10756218;33;20032;-72
2023/01/20 20:11:09;;;;;;;11.70;8.50;;;8.70;83.40;;;;;;10785741;33;20066;-72
2023/01/20 20:17:14;;;;;;;11.07;8.63;;;8.60;83.40;;;;;;10786348;33;20020;-73
2023/01/20 20:23:18;;;;;;;14.65;8.45;;;8.50;83.50;;;;;;10790562;33;20046;-74
2023/01/20 20:29:21;;;;;;;15.57;11.57;;;8.40;83.50;;;;;;10791184;33;20024;-74
2023/01/20 20:35:23;;;;;;;11.20;7.60;;;8.20;83.50;;;;;;10786403;33;20012;-74
2023/01/20 20:41:30;;;;;;;18.40;12.55;;;8.30;83.50;;;;;;10791753;33;20025;-74
2023/01/20 20:47:32;;;;;;;11.77;9.05;;;8.20;83.40;;;;;;10791273;33;20020;-75
2023/01/20 20:53:34;;;;;;;15.32;12.23;;;8.20;83.70;;;;;;10791753;33;20428;-75
2023/01/20 20:59:36;;;;;;;12.48;9.35;;;8.20;83.60;;;;;;10791497;33;20043;-75
2023/01/20 21:05:38;;;;;;;15.50;13.27;;;8.20;83.40;;;;;;10791398;33;20051;-75
2023/01/20 21:11:56;;;;;;;13.43;10.30;;;8.20;83.30;;;;;;10790517;33;20012;-75
2023/01/20 21:24:27;;;;;;;11.65;8.13;;;8.10;83.50;;;;;;10788553;33;20272;-75
2023/01/20 21:30:29;;;;;;;12.07;8.80;;;7.90;83.50;;;;;;10786259;33;20403;-75
2023/01/20 21:36:33;;;;;;;13.07;9.90;;;7.70;83.70;;;;;;10790750;33;20043;-73
2023/01/20 21:42:35;;;;;;;13.50;9.80;;;7.60;83.70;;;;;;10790368;33;20016;-74
2023/01/20 21:54:58;;;;;;;11.60;9.10;;;7.70;83.70;;;;;;10790142;33;20074;-74
2023/01/20 22:01:00;;;;;;;14.60;9.85;;;7.70;83.50;;;;;;10789942;33;20028;-74
2023/01/20 22:07:02;;;;;;;23.50;14.57;;;7.40;83.90;;;;;;10787897;33;20112;-74
2023/01/20 22:13:05;;;;;;;12.50;9.07;;;7.50;83.90;;;;;;10776586;33;20016;-74
2023/01/20 22:19:10;;;;;;;13.57;9.95;;;7.40;83.70;;;;;;10786605;33;20060;-74
2023/01/20 22:25:12;;;;;;;19.73;13.40;;;7.20;84.10;;;;;;10773520;33;20311;-73
2023/01/20 22:31:20;;;;;;;14.80;10.98;;;7.30;84.00;;;;;;10739989;32;20394;-73
2023/01/20 22:37:22;;;;;;;14.18;9.45;;;7.40;83.90;;;;;;10747301;33;20032;-74
2023/01/20 22:43:24;;;;;;;14.75;9.18;;;7.20;83.60;;;;;;10751610;33;20021;-74
2023/01/20 22:49:27;;;;;;;16.92;12.63;;;7.00;84.10;;;;;;10751284;33;20016;-74
2023/01/20 22:55:30;;;;;;;12.68;9.43;;;6.90;84.50;;;;;;10752055;33;20021;-74
2023/01/20 23:01:34;;;;;;;15.10;10.45;;;6.90;84.10;;;;;;10748182;33;20020;-74
2023/01/20 23:07:37;;;;;;;15.55;10.45;;;6.70;84.30;;;;;;10751943;33;20055;-74
2023/01/20 23:13:39;;;;;;;16.15;11.68;;;6.80;84.30;;;;;;10750736;33;20012;-75
2023/01/20 23:19:42;;;;;;;13.70;10.55;;;6.80;84.30;;;;;;10751422;33;20055;-75
2023/01/20 23:25:44;;;;;;;14.05;9.90;;;6.90;84.10;;;;;;10748558;33;20146;-75
2023/01/20 23:31:49;;;;;;;17.42;11.05;;;6.90;84.00;;;;;;10751235;33;20013;-75
2023/01/20 23:37:54;;;;;;;13.70;9.57;;;6.80;84.10;;;;;;10750274;33;20012;-75
2023/01/20 23:43:56;;;;;;;15.32;10.07;;;6.80;83.80;;;;;;10750932;33;20024;-75
2023/01/20 23:49:58;;;;;;;14.25;9.68;;;6.70;83.70;;;;;;10750841;33;20071;-75
2023/01/20 23:56:02;;;;;;;12.88;10.15;;;6.70;83.60;;;;;;10755783;33;20437;-75
